createdAt,value
2023-01-28T00:00:29.000Z,5.2
2023-01-28T00:04:01.000Z,5.1
2023-01-28T00:07:34.000Z,4.5
2023-01-28T00:11:06.000Z,5.3
2023-01-28T00:14:39.000Z,4.6
2023-01-28T00:18:12.000Z,4.8
2023-01-28T00:21:03.000Z,4.8
2023-01-28T00:24:36.000Z,4.8
2023-01-28T00:28:08.000Z,4.5
2023-01-28T00:31:41.000Z,4.3
2023-01-28T00:35:14.000Z,4.5
2023-01-28T00:38:46.000Z,4
2023-01-28T00:42:19.000Z,2.6
2023-01-28T00:45:52.000Z,4.8
2023-01-28T00:49:24.000Z,4.9
2023-01-28T00:52:57.000Z,4.1
2023-01-28T00:56:30.000Z,4
2023-01-28T00:59:21.000Z,5.4
2023-01-28T01:02:54.000Z,4
2023-01-28T01:06:26.000Z,4.7
2023-01-28T01:09:59.000Z,4.2
2023-01-28T01:13:32.000Z,5.2
2023-01-28T01:17:04.000Z,3.9
2023-01-28T01:20:37.000Z,4.4
2023-01-28T01:24:10.000Z,4.1
2023-01-28T01:27:42.000Z,3.9
2023-01-28T01:31:13.000Z,4.7
2023-01-28T01:34:46.000Z,4.2
2023-01-28T01:37:37.000Z,4.4
2023-01-28T01:41:08.000Z,4.1
2023-01-28T01:44:37.000Z,4.4
2023-01-28T01:48:10.000Z,4.8
2023-01-28T01:51:41.000Z,4.7
2023-01-28T01:55:11.000Z,5.5
2023-01-28T01:58:42.000Z,4.6
2023-01-28T02:02:12.000Z,4.8
2023-01-28T02:05:42.000Z,5.5
2023-01-28T02:09:14.000Z,4.9
2023-01-28T02:12:47.000Z,5
2023-01-28T02:15:36.000Z,5.4
2023-01-28T02:19:06.000Z,5.8
2023-01-28T02:22:37.000Z,5.9
2023-01-28T02:26:07.000Z,6.3
2023-01-28T02:29:36.000Z,5.7
2023-01-28T02:33:06.000Z,5.6
2023-01-28T02:45:02.000Z,6.7
2023-01-28T02:48:30.000Z,6.1
2023-01-28T02:51:58.000Z,6
2023-01-28T02:55:26.000Z,6.4
2023-01-28T02:58:54.000Z,6.2
2023-01-28T03:01:20.000Z,6.2
2023-01-28T03:04:50.000Z,6.2
2023-01-28T03:08:18.000Z,6.5
2023-01-28T03:11:47.000Z,5.8
2023-01-28T03:15:15.000Z,6.2
2023-01-28T03:18:43.000Z,5.9
2023-01-28T03:22:11.000Z,7
2023-01-28T03:25:39.000Z,6.7
2023-01-28T03:29:07.000Z,6.5
2023-01-28T03:32:36.000Z,6.1
2023-01-28T03:36:04.000Z,6.6
2023-01-28T03:44:29.000Z,8.7
2023-01-28T03:47:57.000Z,7.2
2023-01-28T03:51:25.000Z,6.6
2023-01-28T03:54:53.000Z,6.8
2023-01-28T03:58:21.000Z,6.6
2023-01-28T04:01:50.000Z,5.6
2023-01-28T04:05:18.000Z,5.6
2023-01-28T04:08:46.000Z,4
2023-01-28T04:12:14.000Z,4.3
2023-01-28T04:15:42.000Z,4.7
2023-01-28T04:19:10.000Z,5.8
2023-01-28T04:21:59.000Z,5.5
2023-01-28T04:25:27.000Z,4.9
2023-01-28T04:28:55.000Z,4.8
2023-01-28T04:32:24.000Z,5.5
2023-01-28T04:35:51.000Z,4.9
2023-01-28T04:39:19.000Z,5.3
2023-01-28T04:42:48.000Z,4.9
2023-01-28T04:46:16.000Z,4.9
2023-01-28T04:49:44.000Z,5.1
2023-01-28T04:53:12.000Z,5.2
2023-01-28T04:56:40.000Z,4.8
2023-01-28T04:59:29.000Z,5.2
2023-01-28T05:02:57.000Z,4.4
2023-01-28T05:06:25.000Z,4.7
2023-01-28T05:09:53.000Z,5.2
2023-01-28T05:13:21.000Z,5.1
2023-01-28T05:16:49.000Z,5.5
2023-01-28T05:20:17.000Z,5.9
2023-01-28T05:23:45.000Z,5.8
2023-01-28T05:27:13.000Z,5.7
2023-01-28T05:30:41.000Z,5.3
2023-01-28T05:34:10.000Z,5.7
2023-01-28T05:36:59.000Z,9
2023-01-28T05:40:27.000Z,14.5
2023-01-28T05:43:55.000Z,9.7
2023-01-28T05:47:23.000Z,23.2
2023-01-28T05:50:51.000Z,11
2023-01-28T05:54:19.000Z,9.5
2023-01-28T05:57:47.000Z,7.8
2023-01-28T06:01:15.000Z,7.9
2023-01-28T06:04:43.000Z,7.3
2023-01-28T06:08:11.000Z,7.2
2023-01-28T06:11:38.000Z,7.6
2023-01-28T06:14:28.000Z,7.8
2023-01-28T06:17:56.000Z,7.3
2023-01-28T06:21:24.000Z,7.4
2023-01-28T06:24:52.000Z,8.2
2023-01-28T06:28:20.000Z,7.7
2023-01-28T06:31:48.000Z,7
2023-01-28T06:35:16.000Z,6.5
2023-01-28T06:38:44.000Z,5.6
2023-01-28T06:42:13.000Z,5.8
2023-01-28T06:45:41.000Z,5.8
2023-01-28T06:49:09.000Z,5.8
2023-01-28T06:51:58.000Z,6.4
2023-01-28T06:55:26.000Z,5.9
2023-01-28T06:58:54.000Z,6.2
2023-01-28T07:02:22.000Z,6.2
2023-01-28T07:05:50.000Z,7.4
2023-01-28T07:09:18.000Z,7.6
2023-01-28T07:12:45.000Z,7.5
2023-01-28T07:16:13.000Z,5.8
2023-01-28T07:19:41.000Z,6.3
2023-01-28T07:23:09.000Z,5.1
2023-01-28T07:26:37.000Z,5.1
2023-01-28T07:29:27.000Z,5
2023-01-28T07:32:55.000Z,4.7
2023-01-28T07:36:23.000Z,5
2023-01-28T07:39:51.000Z,5.7
2023-01-28T07:43:19.000Z,5.3
2023-01-28T07:46:46.000Z,5.5
2023-01-28T07:50:15.000Z,4.8
2023-01-28T07:53:43.000Z,5.7
2023-01-28T07:57:11.000Z,5.8
2023-01-28T08:00:39.000Z,5.7
2023-01-28T08:04:06.000Z,6.4
2023-01-28T08:06:56.000Z,5.8
2023-01-28T08:10:25.000Z,6
2023-01-28T08:13:53.000Z,5.6
2023-01-28T08:17:21.000Z,5.4
2023-01-28T08:20:49.000Z,9.9
2023-01-28T08:24:17.000Z,11
2023-01-28T08:27:45.000Z,14.1
2023-01-28T08:31:13.000Z,11.5
2023-01-28T08:34:41.000Z,13.9
2023-01-28T08:38:09.000Z,11.3
2023-01-28T08:41:37.000Z,9.5
2023-01-28T08:44:26.000Z,10
2023-01-28T08:47:54.000Z,8.8
2023-01-28T08:51:22.000Z,9.8
2023-01-28T08:54:50.000Z,9.3
2023-01-28T08:58:18.000Z,8.7
2023-01-28T09:01:46.000Z,6
2023-01-28T09:05:14.000Z,6.4
2023-01-28T09:08:42.000Z,6
2023-01-28T09:12:11.000Z,7.1
2023-01-28T09:15:39.000Z,7.1
2023-01-28T09:19:07.000Z,7.2
2023-01-28T09:21:57.000Z,6.8
2023-01-28T09:25:25.000Z,6.6
2023-01-28T09:28:53.000Z,6.7
2023-01-28T09:32:21.000Z,6.8
2023-01-28T09:35:49.000Z,7.1
2023-01-28T09:39:18.000Z,6.7
2023-01-28T09:42:46.000Z,7
2023-01-28T09:46:14.000Z,6.8
2023-01-28T09:49:42.000Z,7.1
2023-01-28T09:53:09.000Z,6.5
2023-01-28T09:56:37.000Z,7
2023-01-28T09:59:26.000Z,7.6
2023-01-28T10:02:55.000Z,6.6
2023-01-28T10:06:23.000Z,6.5
2023-01-28T10:09:50.000Z,7.4
2023-01-28T10:13:18.000Z,7.3
2023-01-28T10:16:46.000Z,10.7
2023-01-28T10:20:14.000Z,10.7
2023-01-28T10:23:43.000Z,10.7
2023-01-28T10:27:11.000Z,6.6
2023-01-28T10:30:39.000Z,6.5
2023-01-28T10:34:07.000Z,7.3
2023-01-28T10:36:56.000Z,8.7
2023-01-28T10:40:24.000Z,9.2
2023-01-28T10:43:55.000Z,8.6
2023-01-28T10:47:23.000Z,6.4
2023-01-28T10:50:51.000Z,10.3
2023-01-28T10:54:19.000Z,11.1
2023-01-28T10:57:47.000Z,10.5
2023-01-28T11:01:15.000Z,9.1
2023-01-28T11:04:44.000Z,9
2023-01-28T11:08:12.000Z,8.8
2023-01-28T11:11:40.000Z,7.4
2023-01-28T11:17:57.000Z,10.4
2023-01-28T11:21:26.000Z,10.8
2023-01-28T11:24:54.000Z,9.5
2023-01-28T11:28:22.000Z,8.9
2023-01-28T11:31:50.000Z,8.1
2023-01-28T11:35:18.000Z,8.1
2023-01-28T11:38:47.000Z,7.6
2023-01-28T11:42:17.000Z,8
2023-01-28T11:45:46.000Z,8.3
2023-01-28T11:49:17.000Z,9.2
2023-01-28T11:52:50.000Z,10.3
2023-01-28T11:55:50.000Z,10.2
2023-01-28T11:59:22.000Z,8.9
2023-01-28T12:02:53.000Z,9.5
2023-01-28T12:06:24.000Z,9.9
2023-01-28T12:09:55.000Z,9.7
2023-01-28T12:13:24.000Z,8.9
2023-01-28T12:16:54.000Z,9.1
2023-01-28T12:20:25.000Z,9.6
2023-01-28T12:23:54.000Z,9
2023-01-28T12:27:27.000Z,8.5
2023-01-28T12:31:00.000Z,9.2
2023-01-28T12:33:51.000Z,9.8
2023-01-28T12:37:23.000Z,8.2
2023-01-28T12:40:56.000Z,10.1
2023-01-28T12:44:29.000Z,13.9
2023-01-28T12:48:01.000Z,14.5
2023-01-28T12:51:34.000Z,11.7
2023-01-28T12:55:07.000Z,10.2
2023-01-28T12:58:39.000Z,11.1
2023-01-28T13:02:12.000Z,10.7
2023-01-28T13:05:45.000Z,10.3
2023-01-28T13:09:18.000Z,9.9
2023-01-28T13:12:09.000Z,10.2
2023-01-28T13:15:42.000Z,9.9
2023-01-28T13:19:14.000Z,10
2023-01-28T13:22:47.000Z,9.1
2023-01-28T13:26:18.000Z,10.7
2023-01-28T13:29:47.000Z,10.2
2023-01-28T13:33:16.000Z,10.1
2023-01-28T13:36:48.000Z,9.3
2023-01-28T13:40:17.000Z,10.7
2023-01-28T13:43:48.000Z,11.3
2023-01-28T13:47:17.000Z,11.4
2023-01-28T13:50:08.000Z,10.9
2023-01-28T13:53:40.000Z,10.2
2023-01-28T13:57:26.000Z,12.5
2023-01-28T14:00:55.000Z,13.1
2023-01-28T14:04:26.000Z,12.4
2023-01-28T14:07:58.000Z,11.5
2023-01-28T14:11:30.000Z,12.5
2023-01-28T14:15:03.000Z,12.3
2023-01-28T14:18:33.000Z,12.9
2023-01-28T14:22:04.000Z,12.1
2023-01-28T14:25:35.000Z,12.5
2023-01-28T14:28:26.000Z,11.9
2023-01-28T14:31:56.000Z,11.8
2023-01-28T14:35:29.000Z,11.6
2023-01-28T14:38:58.000Z,12.1
2023-01-28T14:45:57.000Z,16.6
2023-01-28T14:49:27.000Z,12.8
2023-01-28T14:52:56.000Z,11.2
2023-01-28T14:56:25.000Z,8.9
2023-01-28T14:59:56.000Z,9.6
2023-01-28T15:03:24.000Z,10.2
2023-01-28T15:06:53.000Z,10.8
2023-01-28T15:10:21.000Z,11
2023-01-28T15:13:49.000Z,10.5
2023-01-28T15:17:17.000Z,10.9
2023-01-28T15:20:46.000Z,11.9
2023-01-28T15:23:35.000Z,10.8
2023-01-28T15:27:03.000Z,11
2023-01-28T15:30:31.000Z,10.7
2023-01-28T15:33:59.000Z,10.8
2023-01-28T15:37:27.000Z,11.9
2023-01-28T15:40:55.000Z,10.9
2023-01-28T15:44:23.000Z,12.2
2023-01-28T15:47:50.000Z,10.8
2023-01-28T15:51:19.000Z,12
2023-01-28T15:54:46.000Z,13.7
2023-01-28T15:58:14.000Z,22.5
2023-01-28T16:01:04.000Z,28.6
2023-01-28T16:04:32.000Z,19.1
2023-01-28T16:08:00.000Z,14.4
2023-01-28T16:11:27.000Z,16
2023-01-28T16:14:55.000Z,16
2023-01-28T16:18:23.000Z,12.5
2023-01-28T16:21:51.000Z,12.1
2023-01-28T16:25:19.000Z,13.2
2023-01-28T16:28:47.000Z,18.2
2023-01-28T16:32:15.000Z,19.6
2023-01-28T16:35:43.000Z,17.1
2023-01-28T16:38:46.000Z,11
2023-01-28T16:42:15.000Z,15.3
2023-01-28T16:45:43.000Z,15.5
2023-01-28T16:49:11.000Z,14.2
2023-01-28T16:52:39.000Z,15.9
2023-01-28T16:56:07.000Z,10.1
2023-01-28T17:00:02.000Z,9.6
2023-01-28T17:03:30.000Z,9.6
2023-01-28T17:06:58.000Z,12.6
2023-01-28T17:10:25.000Z,11.4
2023-01-28T17:13:53.000Z,11.7
2023-01-28T17:16:43.000Z,10.8
2023-01-28T17:20:10.000Z,12.7
2023-01-28T17:23:38.000Z,11.3
2023-01-28T17:27:06.000Z,10.5
2023-01-28T17:30:34.000Z,13.8
2023-01-28T17:34:03.000Z,13.2
2023-01-28T17:37:30.000Z,12.2
2023-01-28T17:40:58.000Z,15.3
2023-01-28T17:44:26.000Z,20.7
2023-01-28T17:47:54.000Z,12.7
2023-01-28T17:51:22.000Z,11.4
2023-01-28T17:54:11.000Z,10.8
2023-01-28T17:57:39.000Z,10.7
2023-01-28T18:01:07.000Z,11.1
2023-01-28T18:04:35.000Z,11.2
2023-01-28T18:08:03.000Z,10.9
2023-01-28T18:11:31.000Z,11.7
2023-01-28T18:14:59.000Z,11.6
2023-01-28T18:18:27.000Z,11.1
2023-01-28T18:21:55.000Z,10.5
2023-01-28T18:25:23.000Z,10.4
2023-01-28T18:28:51.000Z,9.8
2023-01-28T18:31:40.000Z,10.8
2023-01-28T18:35:08.000Z,10.9
2023-01-28T18:38:37.000Z,12.2
2023-01-28T18:42:04.000Z,14.5
2023-01-28T18:45:32.000Z,11.2
2023-01-28T18:49:00.000Z,13.6
2023-01-28T18:52:28.000Z,14.7
2023-01-28T18:55:56.000Z,12.3
2023-01-28T18:59:24.000Z,10.2
2023-01-28T19:02:52.000Z,10.7
2023-01-28T19:06:20.000Z,10.4
2023-01-28T19:09:09.000Z,10.6
2023-01-28T19:12:37.000Z,9.5
2023-01-28T19:16:05.000Z,7.8
2023-01-28T19:19:33.000Z,8.5
2023-01-28T19:23:01.000Z,8.1
2023-01-28T19:26:29.000Z,8.9
2023-01-28T19:29:57.000Z,38.9
2023-01-28T19:33:25.000Z,15.7
2023-01-28T19:36:53.000Z,13.6
2023-01-28T19:40:21.000Z,11.8
2023-01-28T19:43:49.000Z,11.3
2023-01-28T19:46:38.000Z,8.2
2023-01-28T19:50:06.000Z,8.7
2023-01-28T19:53:34.000Z,8.8
2023-01-28T19:57:02.000Z,8.1
2023-01-28T20:00:30.000Z,8.5
2023-01-28T20:03:58.000Z,8.5
2023-01-28T20:07:26.000Z,7.6
2023-01-28T20:10:54.000Z,7.5
2023-01-28T20:14:21.000Z,7.8
2023-01-28T20:17:49.000Z,8.1
2023-01-28T20:21:17.000Z,8.1
2023-01-28T20:24:07.000Z,7.7
2023-01-28T20:27:35.000Z,8.2
2023-01-28T20:31:02.000Z,8.1
2023-01-28T20:34:31.000Z,7.9
2023-01-28T20:37:58.000Z,7.8
2023-01-28T20:41:26.000Z,7.7
2023-01-28T20:44:54.000Z,8.1
2023-01-28T20:48:22.000Z,7.1
2023-01-28T20:51:50.000Z,7.7
2023-01-28T20:55:18.000Z,7.5
2023-01-28T20:58:46.000Z,7
2023-01-28T21:01:35.000Z,7
2023-01-28T21:05:03.000Z,6.7
2023-01-28T21:08:31.000Z,6.9
2023-01-28T21:11:59.000Z,6.4
2023-01-28T21:15:27.000Z,7.1
2023-01-28T21:18:55.000Z,6.9
2023-01-28T21:22:23.000Z,6.7
2023-01-28T21:25:51.000Z,6.8
2023-01-28T21:29:19.000Z,6.7
2023-01-28T21:32:47.000Z,6.9
2023-01-28T21:36:15.000Z,7.1
2023-01-28T21:39:04.000Z,7.6
2023-01-28T21:42:32.000Z,7.1
2023-01-28T21:46:00.000Z,7.5
2023-01-28T21:49:28.000Z,7.7
2023-01-28T21:52:56.000Z,7.4
2023-01-28T21:56:23.000Z,7.7
2023-01-28T21:59:51.000Z,7.2
2023-01-28T22:03:19.000Z,7.2
2023-01-28T22:06:47.000Z,7.6
2023-01-28T22:10:15.000Z,8.2
2023-01-28T22:13:43.000Z,8.9
2023-01-28T22:16:33.000Z,7.4
2023-01-28T22:20:01.000Z,8.3
2023-01-28T22:23:29.000Z,8
2023-01-28T22:26:57.000Z,7.8
2023-01-28T22:30:24.000Z,7.9
2023-01-28T22:33:53.000Z,7.6
2023-01-28T22:37:21.000Z,8
2023-01-28T22:40:49.000Z,9
2023-01-28T22:44:17.000Z,8.4
2023-01-28T22:47:45.000Z,8.7
2023-01-28T22:51:13.000Z,8.3
2023-01-28T22:54:02.000Z,8.3
2023-01-28T22:57:30.000Z,8.3
2023-01-28T23:00:58.000Z,8.4
2023-01-28T23:04:26.000Z,11.5
2023-01-28T23:07:54.000Z,9.2
2023-01-28T23:11:22.000Z,8.5
2023-01-28T23:14:50.000Z,8.6
2023-01-28T23:18:18.000Z,9.2
2023-01-28T23:21:45.000Z,8.7
2023-01-28T23:25:14.000Z,8.5
2023-01-28T23:28:42.000Z,8.3
2023-01-28T23:33:37.000Z,10.8
2023-01-28T23:37:05.000Z,9.4
2023-01-28T23:40:33.000Z,9.3
2023-01-28T23:44:00.000Z,9.3
2023-01-28T23:47:28.000Z,8
2023-01-28T23:50:56.000Z,12.4
2023-01-28T23:54:24.000Z,10.5
2023-01-28T23:57:52.000Z,10.6
